Portada
METAR-TAF:

METAR-TAF

Aeroports :

Orlando Executive Airport

Orlando, Florida, Estats Units d'Amèrica

latitud: 28-32-47N, longitud: 081-20-09W, altitud: 34 m

Observació

L'informe es va fer fa 27 minuts, a les 17:11 UTC
Vent 10 kt del Sud
Temperatura 31°C
Humitat 66%
Pressió 1011 hPa
Visibilitat: 16.1 km
Núvols disperses a una alçada de 2700 ft
Cel ennuvolat a una alçada de 3300 ft

METAR: KORL 291711Z 19010KT 10SM SCT027 BKN033 31/24 A2985 RMK AO2 T03110239

Hora: 13:38 (17:38 UTC)


TAF: manca

Observacions i pronòstics meteorològics de més de 4000 aeroports (METAR i TAF).

Les estacions disponibles són els punts grocs i vermells al mapa.

Posi el ratolí al punt desitjat per veure el nom de l'estació.

Feu clic per veure les observacions i els pronòstics meteorològics.

Per canviar el mapa: feu clic els botons verds amb una creu de color negre per apropar; al botó verd amb un guió per allunyar la imatge; o en les fletxes verdes per a mapes adjacents.


METAR-TAF: